Time;durP1;ratioP1;P1;durP2;ratioP2;P2;SDS_P1;SDS_P2;PMS_P1;PMS_P2;Temp;Humidity;BMP_temperature;BMP_pressure;BME280_temperature;BME280_humidity;BME280_pressure;Samples;Min_cycle;Max_cycle;Signal;HPM_P1;HPM_P2
2022/12/05 00:01:41;;;;;;;34.88;16.20;;;;;;;-1.03;100.00;98431.22;4204838;28;20075;-76
2022/12/05 00:03:42;;;;;;;31.25;14.93;;;;;;;-1.05;100.00;98423.38;4203105;28;20121;-75
2022/12/05 00:05:42;;;;;;;32.53;16.45;;;;;;;-1.03;100.00;98433.94;4204516;28;20036;-75
2022/12/05 00:07:42;;;;;;;28.30;14.93;;;;;;;-1.07;100.00;98417.44;4204763;28;20059;-76
2022/12/05 00:09:43;;;;;;;35.03;15.10;;;;;;;-1.05;100.00;98426.09;4203798;28;20499;-75
2022/12/05 00:11:44;;;;;;;32.75;15.02;;;;;;;-1.06;100.00;98426.41;4204087;28;20059;-75
2022/12/05 00:13:46;;;;;;;31.55;15.93;;;;;;;-1.05;100.00;98425.28;4203595;28;20144;-75
2022/12/05 00:15:46;;;;;;;31.20;16.07;;;;;;;-1.04;100.00;98424.97;4204708;28;20056;-75
2022/12/05 00:17:46;;;;;;;27.77;13.80;;;;;;;-1.06;100.00;98424.50;4204091;28;20278;-75
2022/12/05 00:19:47;;;;;;;29.92;14.73;;;;;;;-1.03;100.00;98425.78;4204237;28;20147;-75
2022/12/05 00:21:47;;;;;;;33.22;15.23;;;;;;;-1.03;100.00;98423.88;4204124;28;20047;-76
2022/12/05 00:23:49;;;;;;;28.63;14.65;;;;;;;-1.05;100.00;98426.09;4185189;28;20352;-75
2022/12/05 00:25:49;;;;;;;28.02;14.18;;;;;;;-1.06;100.00;98432.63;4203879;28;20101;-75
2022/12/05 00:27:49;;;;;;;33.40;14.10;;;;;;;-1.04;100.00;98438.56;4204289;28;20509;-75
2022/12/05 00:29:50;;;;;;;28.30;14.35;;;;;;;-1.02;100.00;98441.75;4204503;28;20406;-75
2022/12/05 00:31:50;;;;;;;26.40;13.95;;;;;;;-1.01;100.00;98440.66;4203914;28;20094;-75
2022/12/05 00:33:51;;;;;;;30.90;14.88;;;;;;;-1.02;100.00;98439.06;4202911;28;20078;-75
2022/12/05 00:35:51;;;;;;;29.73;14.57;;;;;;;-0.97;100.00;98440.88;4204358;28;20040;-76
2022/12/05 00:37:52;;;;;;;33.20;16.10;;;;;;;-1.02;100.00;98440.97;4204056;28;20040;-75
2022/12/05 00:39:52;;;;;;;35.95;15.23;;;;;;;-1.03;100.00;98440.16;4203992;28;20036;-75
2022/12/05 00:41:52;;;;;;;29.70;15.45;;;;;;;-1.03;100.00;98439.34;4204040;28;20050;-76
2022/12/05 00:43:54;;;;;;;29.73;14.35;;;;;;;-1.05;100.00;98444.28;4203715;28;20044;-76
2022/12/05 00:45:54;;;;;;;32.42;14.60;;;;;;;-1.04;100.00;98448.63;4203541;28;20074;-75
2022/12/05 00:47:54;;;;;;;32.65;13.80;;;;;;;-1.03;100.00;98451.03;4169740;28;20052;-75
2022/12/05 00:49:55;;;;;;;36.03;15.10;;;;;;;-1.00;100.00;98449.59;4202707;28;20101;-75
2022/12/05 00:51:55;;;;;;;30.25;15.27;;;;;;;-1.01;100.00;98448.81;4203682;28;20040;-75
2022/12/05 00:54:04;;;;;;;34.78;15.65;;;;;;;-1.02;100.00;98452.63;4202958;28;20044;-76
2022/12/05 00:56:10;;;;;;;32.13;14.73;;;;;;;-1.00;100.00;98453.13;4202118;28;20479;-76
2022/12/05 00:58:10;;;;;;;28.17;14.30;;;;;;;-1.01;100.00;98448.00;4202805;28;20059;-76
2022/12/05 01:00:11;;;;;;;36.50;16.17;;;;;;;-1.02;100.00;98447.19;4204145;28;20067;-75
2022/12/05 01:02:11;;;;;;;28.08;14.05;;;;;;;-1.01;100.00;98442.56;4202768;28;20024;-75
2022/12/05 01:04:21;;;;;;;28.80;13.25;;;;;;;-1.02;100.00;98440.97;4202614;28;20028;-75
2022/12/05 01:06:23;;;;;;;30.00;13.20;;;;;;;-1.03;100.00;98442.88;4203552;28;20099;-75
2022/12/05 01:08:23;;;;;;;31.83;15.47;;;;;;;-1.05;100.00;98444.28;4202632;28;20058;-75
2022/12/05 01:10:24;;;;;;;28.88;13.65;;;;;;;-1.03;100.00;98448.31;4204255;28;20121;-75
2022/12/05 01:12:24;;;;;;;30.58;15.73;;;;;;;-1.01;100.00;98451.53;4202681;28;20043;-75
2022/12/05 01:14:25;;;;;;;29.30;13.25;;;;;;;-1.00;100.00;98455.84;4203336;28;20774;-75
2022/12/05 01:16:31;;;;;;;27.02;12.85;;;;;;;-1.01;100.00;98446.09;4204021;28;20296;-75
2022/12/05 01:18:38;;;;;;;29.40;14.10;;;;;;;-0.99;100.00;98460.19;4196289;27;20376;-74
2022/12/05 01:20:40;;;;;;;25.90;13.93;;;;;;;-0.99;100.00;98460.19;4185956;28;20033;-74
2022/12/05 01:22:40;;;;;;;36.90;14.63;;;;;;;-0.99;100.00;98462.91;4183702;28;20243;-73
2022/12/05 01:24:40;;;;;;;33.95;14.90;;;;;;;-0.99;100.00;98459.38;4184005;28;20128;-75
2022/12/05 01:26:41;;;;;;;27.48;12.93;;;;;;;-1.01;100.00;98456.16;4184404;28;20056;-75
2022/12/05 01:28:42;;;;;;;28.02;13.82;;;;;;;-1.00;100.00;98450.41;4185187;28;20045;-75
2022/12/05 01:30:45;;;;;;;34.15;15.07;;;;;;;-1.02;100.00;98444.47;4185393;28;20041;-76
2022/12/05 01:32:45;;;;;;;35.03;14.70;;;;;;;-1.03;100.00;98450.22;4184588;28;20098;-75
2022/12/05 01:34:45;;;;;;;34.63;14.30;;;;;;;-1.04;100.00;98446.69;4186165;28;20052;-76
2022/12/05 01:36:46;;;;;;;30.95;15.18;;;;;;;-1.02;100.00;98454.53;4184804;28;20530;-76
2022/12/05 01:38:46;;;;;;;30.67;14.13;;;;;;;-1.04;100.00;98445.91;4184744;28;20040;-76
2022/12/05 01:40:46;;;;;;;27.42;13.15;;;;;;;-1.02;100.00;98455.34;4183808;28;20411;-76
2022/12/05 01:42:47;;;;;;;31.95;15.30;;;;;;;-1.04;100.00;98446.69;4184396;28;20083;-75
2022/12/05 01:44:47;;;;;;;30.08;13.70;;;;;;;-1.02;100.00;98458.06;4184865;28;20064;-75
2022/12/05 01:46:50;;;;;;;33.30;14.57;;;;;;;-1.00;100.00;98450.41;4184341;28;20095;-75
2022/12/05 01:48:53;;;;;;;27.70;12.95;;;;;;;-1.00;100.00;98446.88;4185946;28;20045;-75
2022/12/05 01:50:54;;;;;;;31.05;14.23;;;;;;;-0.99;100.00;98457.47;4184826;28;20063;-75
2022/12/05 01:52:54;;;;;;;27.10;14.10;;;;;;;-0.97;100.00;98457.16;4184141;28;20532;-75
2022/12/05 01:55:01;;;;;;;29.25;13.57;;;;;;;-0.98;100.00;98459.06;4184027;28;20511;-75
2022/12/05 01:57:09;;;;;;;23.38;12.90;;;;;;;-0.98;100.00;98458.28;4184909;28;20049;-75
2022/12/05 01:59:11;;;;;;;25.17;12.63;;;;;;;-0.98;100.00;98456.38;4182565;28;20142;-75
2022/12/05 02:01:14;;;;;;;26.67;13.35;;;;;;;-1.00;100.00;98455.03;4183802;28;20048;-75
2022/12/05 02:03:20;;;;;;;20.98;11.80;;;;;;;-1.01;100.00;98458.88;4185020;28;20044;-75
2022/12/05 02:05:29;;;;;;;28.92;14.57;;;;;;;-1.01;100.00;98459.66;4184520;28;20061;-75
2022/12/05 02:07:30;;;;;;;24.20;11.85;;;;;;;-1.00;100.00;98455.84;4183283;28;20366;-75
2022/12/05 02:09:31;;;;;;;29.23;14.23;;;;;;;-0.98;100.00;98455.56;4185013;28;20492;-75
2022/12/05 02:11:33;;;;;;;28.27;14.23;;;;;;;-1.00;100.00;98455.03;4185005;28;20053;-74
2022/12/05 02:13:49;;;;;;;24.85;14.27;;;;;;;-1.00;100.00;98447.69;4182560;28;20265;-74
2022/12/05 02:16:04;;;;;;;26.33;12.32;;;;;;;-1.02;100.00;98455.34;4182765;28;20140;-75
2022/12/05 02:18:10;;;;;;;29.50;13.77;;;;;;;-1.00;100.00;98457.75;4195602;28;20131;-74
2022/12/05 02:20:25;;;;;;;24.95;13.10;;;;;;;-0.99;100.00;98456.66;4201107;28;20443;-75
2022/12/05 02:22:44;;;;;;;25.10;12.27;;;;;;;-0.98;100.00;98461.00;4199849;28;20036;-75
2022/12/05 02:25:06;;;;;;;23.92;11.55;;;;;;;-0.98;100.00;98453.66;4199945;28;20044;-74
2022/12/05 02:27:19;;;;;;;24.42;12.05;;;;;;;-1.03;100.00;98464.59;4200795;28;20045;-74
2022/12/05 02:30:01;;;;;;;25.50;13.38;;;;;;;-1.00;100.00;98468.63;4193833;28;20415;-74
2022/12/05 02:32:27;;;;;;;21.30;10.98;;;;;;;-1.00;100.00;98469.41;4189350;28;20052;-75
2022/12/05 02:34:54;;;;;;;26.13;12.35;;;;;;;-1.00;100.00;98471.34;4190742;28;20409;-74
2022/12/05 02:37:12;;;;;;;27.25;13.43;;;;;;;-0.99;100.00;98468.34;4190429;28;20067;-74
2022/12/05 02:39:24;;;;;;;23.67;13.07;;;;;;;-1.00;100.00;98472.13;4188868;28;20052;-74
2022/12/05 02:41:47;;;;;;;31.80;14.35;;;;;;;-0.98;100.00;98474.56;4188385;28;20550;-75
2022/12/05 02:44:13;;;;;;;28.60;14.18;;;;;;;-1.01;100.00;98470.53;4180519;28;20309;-75
2022/12/05 02:46:19;;;;;;;26.42;13.23;;;;;;;-1.02;100.00;98460.78;4189352;28;20056;-74
2022/12/05 02:48:19;;;;;;;26.35;12.57;;;;;;;-1.02;100.00;98459.97;4188653;28;20041;-74
2022/12/05 02:50:28;;;;;;;27.80;13.30;;;;;;;-1.02;100.00;98458.06;4190036;28;20539;-74
2022/12/05 02:52:31;;;;;;;27.15;13.25;;;;;;;-0.99;100.00;98465.63;4189311;28;20706;-74
2022/12/05 02:54:38;;;;;;;27.58;13.02;;;;;;;-1.00;100.00;98455.84;4189466;28;20048;-74
2022/12/05 02:56:42;;;;;;;26.73;12.50;;;;;;;-0.99;100.00;98451.25;4188700;28;20136;-74
2022/12/05 02:58:54;;;;;;;28.02;13.27;;;;;;;-1.02;100.00;98454.53;4187917;28;20541;-74
2022/12/05 03:00:57;;;;;;;27.60;14.05;;;;;;;-1.02;100.00;98454.53;4189644;28;20087;-74
2022/12/05 03:02:59;;;;;;;25.02;12.98;;;;;;;-0.98;100.00;98452.84;4188903;28;20396;-75
2022/12/05 03:05:26;;;;;;;24.38;12.70;;;;;;;-1.00;100.00;98452.31;4187984;28;20126;-74
2022/12/05 03:07:29;;;;;;;23.00;11.73;;;;;;;-1.02;100.00;98447.19;4188667;28;20044;-75
2022/12/05 03:09:48;;;;;;;27.95;13.27;;;;;;;-1.01;100.00;98443.38;4189729;28;20444;-74
2022/12/05 03:11:53;;;;;;;25.60;12.70;;;;;;;-1.00;100.00;98457.75;4189646;28;20182;-74
2022/12/05 03:13:56;;;;;;;24.25;11.70;;;;;;;-1.00;100.00;98450.41;4188407;28;20704;-75
2022/12/05 03:16:02;;;;;;;27.38;13.65;;;;;;;-1.01;100.00;98443.38;4189029;28;20047;-75
2022/12/05 03:18:25;;;;;;;24.88;11.95;;;;;;;-1.00;100.00;98449.59;4188870;28;20456;-74
2022/12/05 03:20:31;;;;;;;23.38;11.93;;;;;;;-1.00;100.00;98457.75;4186875;28;20652;-74
2022/12/05 03:22:40;;;;;;;23.65;12.05;;;;;;;-1.00;100.00;98450.41;4188638;28;20362;-74
2022/12/05 03:24:41;;;;;;;20.73;10.77;;;;;;;-1.01;100.00;98448.00;4188523;28;20378;-75
2022/12/05 03:27:09;;;;;;;21.20;12.00;;;;;;;-0.98;100.00;98452.84;4187623;28;20049;-74
2022/12/05 03:29:23;;;;;;;21.23;11.27;;;;;;;-0.99;100.00;98449.31;4189384;28;20111;-75
2022/12/05 03:31:40;;;;;;;22.83;11.68;;;;;;;-0.99;100.00;98451.25;4189272;28;20418;-74
2022/12/05 03:33:44;;;;;;;21.50;12.75;;;;;;;-0.97;100.00;98457.97;4188364;28;20481;-74
2022/12/05 03:35:51;;;;;;;25.92;12.82;;;;;;;-0.97;100.00;98455.25;4188113;28;20043;-74
2022/12/05 03:38:00;;;;;;;24.45;12.20;;;;;;;-0.96;100.00;98448.72;4187865;28;20420;-74
2022/12/05 03:40:19;;;;;;;21.67;12.40;;;;;;;-0.96;100.00;98454.13;4188689;28;20389;-74
2022/12/05 03:42:31;;;;;;;25.02;12.63;;;;;;;-0.96;100.00;98462.28;4188053;28;20063;-74
2022/12/05 03:44:43;;;;;;;24.27;12.70;;;;;;;-0.95;100.00;98460.38;4187713;28;20109;-74
2022/12/05 03:46:50;;;;;;;25.10;11.95;;;;;;;-0.96;100.00;98459.56;4187280;28;20742;-74
2022/12/05 03:49:01;;;;;;;23.85;11.82;;;;;;;-0.93;100.00;98463.59;4189532;28;20292;-75
2022/12/05 03:51:05;;;;;;;18.00;10.63;;;;;;;-0.92;100.00;98463.28;4187514;28;20263;-75
2022/12/05 03:53:38;;;;;;;28.80;14.40;;;;;;;-0.90;100.00;98463.81;4187510;28;20055;-74
2022/12/05 03:55:40;;;;;;;24.85;13.45;;;;;;;-0.91;100.00;98464.09;4167552;28;20357;-74
2022/12/05 03:58:01;;;;;;;30.17;15.45;;;;;;;-0.92;100.00;98457.84;4188415;28;20442;-75
2022/12/05 04:00:08;;;;;;;21.30;12.48;;;;;;;-0.91;100.00;98464.09;4188414;28;20817;-75
2022/12/05 04:02:29;;;;;;;23.63;12.65;;;;;;;-0.93;100.00;98458.97;4188267;28;20055;-74
2022/12/05 04:04:41;;;;;;;24.92;13.07;;;;;;;-0.94;100.00;98454.63;4188072;28;20588;-75
2022/12/05 04:06:46;;;;;;;22.92;12.20;;;;;;;-0.94;100.00;98456.56;4187347;28;20309;-75
2022/12/05 04:08:51;;;;;;;26.48;13.98;;;;;;;-0.94;100.00;98459.25;4188338;28;20049;-75
2022/12/05 04:10:57;;;;;;;25.40;12.85;;;;;;;-0.93;100.00;98458.16;4187443;28;20195;-74
2022/12/05 04:13:16;;;;;;;29.20;14.07;;;;;;;-0.94;100.00;98459.25;4187210;28;20403;-75
2022/12/05 04:15:22;;;;;;;26.70;13.27;;;;;;;-0.96;100.00;98454.13;4186207;28;20127;-75
2022/12/05 04:17:56;;;;;;;23.27;12.77;;;;;;;-0.93;100.00;98456.25;4188802;28;20040;-75
2022/12/05 04:22:25;;;;;;;24.38;12.60;;;;;;;-0.95;100.00;98453.03;4187663;28;20042;-74
2022/12/05 04:27:01;;;;;;;23.27;12.65;;;;;;;-0.95;100.00;98453.03;4187295;28;20130;-75
2022/12/05 04:29:28;;;;;;;24.95;13.00;;;;;;;-0.95;100.00;98463.91;4188088;28;20496;-74
2022/12/05 04:31:38;;;;;;;26.60;13.10;;;;;;;-0.96;100.00;98462.28;4187964;28;20148;-75
2022/12/05 04:33:55;;;;;;;24.33;12.32;;;;;;;-0.95;100.00;98466.59;4187359;28;20037;-75
2022/12/05 04:36:02;;;;;;;24.27;13.60;;;;;;;-0.96;100.00;98466.91;4187164;28;20049;-75
2022/12/05 04:38:26;;;;;;;27.63;13.13;;;;;;;-0.94;100.00;98475.56;4187409;28;20043;-75
2022/12/05 04:40:38;;;;;;;24.98;13.13;;;;;;;-0.94;100.00;98470.94;4187445;28;20297;-75
2022/12/05 04:42:41;;;;;;;23.83;12.95;;;;;;;-0.93;100.00;98472.53;4187995;28;20554;-75
2022/12/05 04:45:04;;;;;;;24.50;12.05;;;;;;;-0.92;100.00;98474.13;4186136;28;20045;-75
2022/12/05 04:47:07;;;;;;;21.80;12.10;;;;;;;-0.93;100.00;98480.69;4187668;28;20211;-74
2022/12/05 04:49:12;;;;;;;22.98;12.15;;;;;;;-0.93;100.00;98479.88;4188325;28;20140;-75
2022/12/05 04:51:17;;;;;;;21.55;12.00;;;;;;;-0.95;100.00;98472.03;4188278;28;20040;-75
2022/12/05 04:53:20;;;;;;;19.83;11.48;;;;;;;-0.93;100.00;98472.53;4187023;28;20048;-75
2022/12/05 04:55:24;;;;;;;;;;;;;;;-0.93;100.00;98475.25;4188115;28;20059;-75
2022/12/05 04:57:32;;;;;;;21.65;11.35;;;;;;;-0.93;100.00;98469.03;4186639;28;19916;-74
2022/12/05 04:59:33;;;;;;;25.80;12.68;;;;;;;-0.94;100.00;98467.41;4187717;28;20054;-75
2022/12/05 05:01:43;;;;;;;23.13;13.13;;;;;;;-0.95;100.00;98472.03;4187628;28;20051;-75
2022/12/05 05:04:10;;;;;;;22.90;11.50;;;;;;;-0.96;100.00;98470.44;4187338;28;20504;-75
2022/12/05 05:06:11;;;;;;;20.42;11.52;;;;;;;-0.95;100.00;98473.94;4187297;28;20052;-74
2022/12/05 05:08:21;;;;;;;20.90;11.38;;;;;;;-0.96;100.00;98470.44;4187694;28;20435;-75
2022/12/05 05:10:34;;;;;;;26.73;13.55;;;;;;;-0.94;100.00;98470.13;4185155;28;20040;-75
2022/12/05 05:12:34;;;;;;;23.80;12.57;;;;;;;-0.95;100.00;98469.31;4181462;28;20481;-75
2022/12/05 05:14:34;;;;;;;23.67;13.55;;;;;;;-0.94;100.00;98473.66;4185572;28;20213;-74
2022/12/05 05:16:37;;;;;;;24.13;12.95;;;;;;;-0.96;100.00;98473.16;4188219;28;20071;-75
2022/12/05 05:18:37;;;;;;;;;;;;;;;-0.95;100.00;98471.25;4187514;28;20044;-75
2022/12/05 05:20:38;;;;;;;24.75;12.57;;;;;;;-0.95;100.00;98468.53;4185298;28;19928;-75
2022/12/05 05:22:38;;;;;;;24.98;12.93;;;;;;;-0.95;100.00;98482.09;4184075;28;20052;-75
2022/12/05 05:24:38;;;;;;;24.35;12.88;;;;;;;-0.94;100.00;98475.56;4185439;28;20068;-75
2022/12/05 05:26:41;;;;;;;24.50;13.00;;;;;;;-0.91;100.00;98483.94;4185803;28;20098;-75
2022/12/05 05:28:42;;;;;;;27.73;12.57;;;;;;;-0.91;100.00;98470.34;4187989;28;20044;-75
2022/12/05 05:30:42;;;;;;;28.50;13.27;;;;;;;-0.91;100.00;98474.94;4185270;28;20530;-75
2022/12/05 05:32:42;;;;;;;28.30;13.85;;;;;;;-0.92;100.00;98479.56;4185052;28;20583;-74
2022/12/05 05:34:43;;;;;;;25.23;13.55;;;;;;;-0.91;100.00;98480.38;4184090;28;20368;-74
2022/12/05 05:36:43;;;;;;;24.38;13.05;;;;;;;-0.91;100.00;98466.78;4187404;28;20295;-75
2022/12/05 05:38:46;;;;;;;26.85;12.27;;;;;;;-0.91;100.00;98474.94;4188190;28;20109;-75
2022/12/05 05:40:47;;;;;;;26.55;12.88;;;;;;;-0.92;100.00;98478.78;4181599;28;20091;-75
2022/12/05 05:42:49;;;;;;;26.98;13.85;;;;;;;-0.90;100.00;98473.88;4183799;28;20761;-75
2022/12/05 05:44:49;;;;;;;;;;;;;;;-0.89;100.00;98486.34;4185282;28;20036;-75
2022/12/05 05:46:50;;;;;;;25.42;12.45;;;;;;;-0.90;100.00;98484.72;4184474;28;19975;-75
2022/12/05 05:48:50;;;;;;;24.42;12.80;;;;;;;-0.92;100.00;98484.19;4186728;28;20090;-74
2022/12/05 05:50:51;;;;;;;26.63;12.50;;;;;;;-0.94;100.00;98481.00;4186809;28;20041;-75
2022/12/05 05:52:51;;;;;;;23.23;12.35;;;;;;;-0.92;100.00;98492.34;4183046;28;20113;-74
2022/12/05 05:54:51;;;;;;;22.58;12.65;;;;;;;-0.93;100.00;98490.75;4136361;27;20123;-74
2022/12/05 05:56:51;;;;;;;23.95;12.52;;;;;;;-0.92;100.00;98484.19;4214518;28;20091;-75
2022/12/05 05:58:57;;;;;;;28.13;13.35;;;;;;;-0.91;100.00;98481.22;4218004;28;20460;-75
2022/12/05 06:01:09;;;;;;;26.20;13.07;;;;;;;-0.92;100.00;98485.00;4218386;28;20373;-75
2022/12/05 06:03:10;;;;;;;25.42;13.50;;;;;;;-0.91;100.00;98483.09;4209678;28;20042;-74
2022/12/05 06:05:10;;;;;;;24.45;12.35;;;;;;;-0.89;100.00;98491.75;4220939;28;20360;-75
2022/12/05 06:07:10;;;;;;;28.90;14.10;;;;;;;-0.89;100.00;98489.06;4221527;27;20040;-74
2022/12/05 06:09:11;;;;;;;22.92;12.13;;;;;;;-0.90;100.00;98490.97;4219051;28;20048;-75
2022/12/05 06:11:20;;;;;;;25.30;13.30;;;;;;;-0.92;100.00;98487.72;4221377;28;20079;-74
2022/12/05 06:13:21;;;;;;;24.45;12.27;;;;;;;-0.91;100.00;98494.78;4220882;27;20054;-75
2022/12/05 06:15:22;;;;;;;22.35;11.57;;;;;;;-0.89;100.00;98499.91;4221371;28;20040;-75
2022/12/05 06:17:22;;;;;;;23.02;12.35;;;;;;;-0.89;100.00;98505.34;4217913;27;20301;-75
2022/12/05 06:19:22;;;;;;;23.77;11.82;;;;;;;-0.92;100.00;98505.94;4222830;27;20049;-75
2022/12/05 06:21:23;;;;;;;18.90;11.18;;;;;;;-0.91;100.00;98499.38;4222395;27;20039;-75
2022/12/05 06:23:25;;;;;;;21.77;11.70;;;;;;;-0.91;100.00;98502.94;4217672;27;21556;-75
2022/12/05 06:25:25;;;;;;;22.90;12.90;;;;;;;-0.93;100.00;98496.97;4220991;27;20044;-74
2022/12/05 06:27:28;;;;;;;23.10;11.75;;;;;;;-0.91;100.00;98504.81;4220260;27;20092;-75
2022/12/05 06:29:29;;;;;;;22.15;12.05;;;;;;;-0.90;100.00;98520.03;4219199;27;20043;-75
2022/12/05 06:31:30;;;;;;;19.23;11.20;;;;;;;-0.91;100.00;98507.53;4219963;28;20467;-75
2022/12/05 06:33:31;;;;;;;21.80;11.85;;;;;;;-0.91;100.00;98511.09;4218372;28;20454;-74
2022/12/05 06:35:31;;;;;;;22.65;11.85;;;;;;;-0.93;100.00;98510.56;4217640;27;20051;-75
2022/12/05 06:37:35;;;;;;;23.85;12.68;;;;;;;-0.92;100.00;98512.16;4221131;27;20577;-75
2022/12/05 06:39:35;;;;;;;20.95;11.77;;;;;;;-0.92;100.00;98506.72;4220236;28;20408;-75
2022/12/05 06:41:35;;;;;;;21.17;11.90;;;;;;;-0.90;100.00;98526.28;4218889;27;20047;-74
2022/12/05 06:43:36;;;;;;;18.85;11.38;;;;;;;-0.89;100.00;98527.06;4220114;28;20051;-75
2022/12/05 06:45:37;;;;;;;23.65;12.18;;;;;;;-0.91;100.00;98521.13;4216422;28;20047;-75
2022/12/05 06:47:37;;;;;;;21.38;10.93;;;;;;;-0.91;100.00;98527.38;4216681;27;20043;-75
2022/12/05 06:49:38;;;;;;;21.63;12.07;;;;;;;-0.91;100.00;98524.66;4219355;27;20407;-75
2022/12/05 06:51:38;;;;;;;18.60;11.43;;;;;;;-0.92;100.00;98523.03;4222386;27;20515;-75
2022/12/05 06:53:39;;;;;;;19.65;11.63;;;;;;;-0.92;100.00;98517.59;4219811;28;20225;-75
2022/12/05 06:55:39;;;;;;;21.80;11.98;;;;;;;-0.92;100.00;98512.16;4220355;28;20055;-75
2022/12/05 06:57:40;;;;;;;21.08;11.15;;;;;;;-0.93;100.00;98521.44;4221515;28;20310;-75
2022/12/05 06:59:40;;;;;;;21.67;12.32;;;;;;;-0.91;100.00;98521.13;4221665;28;20047;-75
2022/12/05 07:01:41;;;;;;;18.33;10.93;;;;;;;-0.91;100.00;98532.81;4219429;27;20150;-75
2022/12/05 07:03:43;;;;;;;22.67;11.07;;;;;;;-0.91;100.00;98527.38;4220199;27;20035;-75
2022/12/05 07:05:43;;;;;;;32.58;12.63;;;;;;;-0.90;100.00;98529.00;4220822;27;20100;-75
2022/12/05 07:07:43;;;;;;;22.90;13.90;;;;;;;-0.89;100.00;98529.78;4220228;28;20044;-75
2022/12/05 07:09:50;;;;;;;29.52;17.42;;;;;;;-0.88;100.00;98536.84;4220402;28;20094;-75
2022/12/05 07:11:50;;;;;;;29.90;18.75;;;;;;;-0.89;100.00;98532.50;4209430;28;20155;-74
2022/12/05 07:13:51;;;;;;;27.70;15.75;;;;;;;-0.89;100.00;98537.94;4219451;27;20343;-75
2022/12/05 07:15:51;;;;;;;28.60;17.08;;;;;;;-0.88;100.00;98543.06;4220767;27;20569;-75
2022/12/05 07:17:51;;;;;;;31.15;16.27;;;;;;;-0.87;100.00;98546.59;4220723;27;20352;-75
2022/12/05 07:19:52;;;;;;;39.28;19.58;;;;;;;-0.88;100.00;98539.56;4221428;27;20970;-75
2022/12/05 07:21:52;;;;;;;34.50;19.13;;;;;;;-0.88;100.00;98540.34;4221067;28;20604;-75
2022/12/05 07:23:53;;;;;;;30.38;16.50;;;;;;;-0.85;100.00;98547.09;4219437;27;20035;-75
2022/12/05 07:25:54;;;;;;;28.88;15.10;;;;;;;-0.81;100.00;98552.72;4220109;27;20455;-75
2022/12/05 07:27:54;;;;;;;25.63;14.00;;;;;;;-0.81;100.00;98553.53;4221179;27;20122;-75
2022/12/05 07:29:55;;;;;;;25.42;14.15;;;;;;;-0.79;100.00;98553.22;4219012;28;20071;-75
2022/12/05 07:31:55;;;;;;;24.75;12.55;;;;;;;-0.76;100.00;98564.28;4220363;28;20126;-74
2022/12/05 07:33:55;;;;;;;19.80;11.95;;;;;;;-0.76;100.00;98561.56;4219771;28;20066;-74
2022/12/05 07:36:00;;;;;;;19.98;12.48;;;;;;;-0.76;100.00;98558.06;4214024;28;20481;-75
2022/12/05 07:38:01;;;;;;;21.23;12.98;;;;;;;-0.75;100.00;98557.75;4219274;27;20048;-75
2022/12/05 07:40:02;;;;;;;36.97;23.40;;;;;;;-0.78;100.00;98563.00;4220131;28;20122;-75
2022/12/05 07:42:02;;;;;;;25.70;15.00;;;;;;;-0.75;100.00;98565.91;4220285;28;20041;-75
2022/12/05 07:44:03;;;;;;;28.25;15.18;;;;;;;-0.74;100.00;98564.00;4219714;27;20051;-75
2022/12/05 07:46:04;;;;;;;27.88;14.18;;;;;;;-0.73;100.00;98562.91;4219834;27;20359;-75
2022/12/05 07:48:05;;;;;;;23.42;13.98;;;;;;;-0.74;100.00;98559.38;4218591;27;20088;-74
2022/12/05 07:50:06;;;;;;;25.00;13.43;;;;;;;-0.72;100.00;98567.22;4221103;28;20636;-75
2022/12/05 07:52:06;;;;;;;55.90;30.05;;;;;;;-0.68;100.00;98566.31;4219660;28;20035;-75
2022/12/05 07:54:06;;;;;;;33.15;19.58;;;;;;;-0.67;100.00;98569.81;4219763;28;20495;-75
2022/12/05 07:56:09;;;;;;;33.83;19.40;;;;;;;-0.71;100.00;98569.63;4219709;27;20850;-75
2022/12/05 07:58:10;;;;;;;71.63;36.28;;;;;;;-0.73;100.00;98571.84;4218912;27;20443;-75
2022/12/05 08:00:11;;;;;;;50.70;27.73;;;;;;;-0.72;100.00;98572.66;4219517;27;20058;-75
2022/12/05 08:02:11;;;;;;;33.08;18.67;;;;;;;-0.71;100.00;98574.25;4218762;27;20114;-75
2022/12/05 08:04:12;;;;;;;32.33;18.50;;;;;;;-0.72;100.00;98578.09;4220232;27;20588;-75
2022/12/05 08:06:19;;;;;;;31.48;17.95;;;;;;;-0.72;100.00;98587.06;4218198;27;20055;-75
2022/12/05 08:08:19;;;;;;;28.58;13.98;;;;;;;-0.72;100.00;98589.75;4218694;27;20065;-75
2022/12/05 08:10:19;;;;;;;24.45;13.98;;;;;;;-0.70;100.00;98592.97;4220387;27;20062;-74
2022/12/05 08:12:20;;;;;;;25.88;12.70;;;;;;;-0.69;100.00;98597.31;4214633;27;20674;-75
2022/12/05 08:14:20;;;;;;;23.98;13.60;;;;;;;-0.70;100.00;98595.69;4219142;28;20051;-75
2022/12/05 08:16:23;;;;;;;28.77;15.07;;;;;;;-0.70;100.00;98589.47;4219102;28;20063;-75
2022/12/05 08:18:24;;;;;;;30.20;15.63;;;;;;;-0.69;100.00;98591.88;4218639;27;20043;-75
2022/12/05 08:20:24;;;;;;;30.45;15.52;;;;;;;-0.66;100.00;98599.44;4218473;27;20044;-75
2022/12/05 08:22:24;;;;;;;38.17;20.33;;;;;;;-0.64;100.00;98596.41;4208800;28;20024;-75
2022/12/05 08:24:25;;;;;;;30.00;16.70;;;;;;;-0.64;100.00;98599.94;4218511;28;20039;-75
2022/12/05 08:26:30;;;;;;;27.98;15.77;;;;;;;-0.62;100.00;98599.63;4218329;28;20044;-74
2022/12/05 08:28:31;;;;;;;27.92;15.30;;;;;;;-0.60;100.00;98600.94;4219459;27;20047;-75
2022/12/05 08:30:32;;;;;;;27.65;15.82;;;;;;;-0.58;100.00;98596.03;4219133;28;20089;-75
2022/12/05 08:32:33;;;;;;;28.13;15.45;;;;;;;-0.54;100.00;98601.63;4219351;27;20039;-75
2022/12/05 08:34:33;;;;;;;23.75;14.38;;;;;;;-0.52;100.00;98604.84;4219832;27;20613;-74
2022/12/05 08:36:33;;;;;;;28.50;15.50;;;;;;;-0.52;100.00;98599.41;4220075;28;20031;-75
2022/12/05 08:38:34;;;;;;;27.52;15.32;;;;;;;-0.51;100.00;98605.66;4217288;28;20036;-74
2022/12/05 08:40:35;;;;;;;25.42;14.70;;;;;;;-0.47;100.00;98614.84;4219320;28;20197;-74
2022/12/05 08:42:35;;;;;;;25.63;13.57;;;;;;;-0.47;100.00;98607.47;4218589;28;20127;-75
2022/12/05 08:44:36;;;;;;;22.60;13.98;;;;;;;-0.45;100.00;98613.41;4219050;27;20389;-75
2022/12/05 08:46:37;;;;;;;27.95;15.10;;;;;;;-0.44;100.00;98608.78;4219848;28;20048;-75
2022/12/05 08:48:38;;;;;;;26.80;14.70;;;;;;;-0.41;100.00;98613.63;4219024;28;20081;-74
2022/12/05 08:50:38;;;;;;;26.15;14.27;;;;;;;-0.42;100.00;98620.16;4219534;27;20039;-75
2022/12/05 08:52:38;;;;;;;25.50;13.60;;;;;;;-0.41;100.00;98622.59;4215541;28;20067;-75
2022/12/05 08:54:39;;;;;;;24.10;14.02;;;;;;;-0.38;100.00;98610.31;4219499;27;20151;-75
2022/12/05 08:56:39;;;;;;;28.52;15.57;;;;;;;-0.38;100.00;98616.53;4219238;27;20139;-74
2022/12/05 08:58:40;;;;;;;28.20;17.85;;;;;;;-0.35;100.00;98623.28;4219213;28;20209;-75
2022/12/05 09:00:41;;;;;;;33.33;16.50;;;;;;;-0.38;100.00;98627.41;4218457;28;20042;-75
2022/12/05 09:02:41;;;;;;;30.60;16.30;;;;;;;-0.37;100.00;98626.31;4216977;27;20103;-75
2022/12/05 09:04:42;;;;;;;24.90;14.05;;;;;;;-0.37;100.00;98628.22;4219398;28;20063;-74
2022/12/05 09:06:42;;;;;;;26.77;15.00;;;;;;;-0.38;100.00;98621.97;4218705;27;20464;-74
2022/12/05 09:08:43;;;;;;;28.73;15.13;;;;;;;-0.35;100.00;98629.50;4219378;27;20047;-74
2022/12/05 09:10:43;;;;;;;29.42;15.45;;;;;;;-0.33;100.00;98630.03;4219073;27;20445;-74
2022/12/05 09:12:44;;;;;;;26.95;14.98;;;;;;;-0.33;100.00;98643.63;4218426;28;20135;-74
2022/12/05 09:14:44;;;;;;;24.70;14.82;;;;;;;-0.32;100.00;98641.72;4218690;28;20639;-75
2022/12/05 09:16:46;;;;;;;25.85;13.95;;;;;;;-0.32;100.00;98655.31;4217937;28;20126;-74
2022/12/05 09:18:48;;;;;;;25.53;14.23;;;;;;;-0.33;100.00;98651.78;4218398;27;20851;-74
2022/12/05 09:20:48;;;;;;;24.02;13.38;;;;;;;-0.34;100.00;98638.47;4218673;28;20265;-75
2022/12/05 09:22:51;;;;;;;19.98;12.98;;;;;;;-0.32;100.00;98645.25;4218296;28;20540;-74
2022/12/05 09:24:51;;;;;;;20.58;12.18;;;;;;;-0.32;100.00;98641.72;4218411;28;20059;-74
2022/12/05 09:26:51;;;;;;;19.02;11.85;;;;;;;-0.31;100.00;98644.13;4219327;28;20048;-74
2022/12/05 09:28:52;;;;;;;22.52;12.63;;;;;;;-0.31;100.00;98646.84;4219186;28;20089;-74
2022/12/05 09:31:01;;;;;;;22.48;12.77;;;;;;;-0.30;100.00;98653.09;4220407;27;20046;-74